map of KFKS home
KFKS - Airport
Location
City:  Frankfort, Michigan, United States
Name:Frankfort Dow Memorial Field
ICAO:KFKS
FAA LID:FKS

Details
Type:Airport (Airfield)
Use:Public/Civil
Latitude:4437'31"N (44.625219)
Longitude:8612'03"W (-86.200807)
Datum:WGS 1984
Elevation:634 ft (193 m)
Variation:5.52W (WMM2015v2 magnetic declination)
-0.00 annual change
Runways:1
Longest:4050 × 75 ft (1234 × 23 m), paved

Time
Time Zone:UTC-5 (DST-4)
Local Time:

Weather
METAR:KFKS 041416Z AUTO 17006KT 5SM BR BKN016 BKN036 BKN047 07/07 A2963 RMK AO2 T00740074

Related Locations
Nearby:
Farthest:YAUG: 11100 mi / 17864 km
Augusta [Augusta Airport], WA, AU

Find:

   beyond  
but within

Other Information
Maps:
NOTAMs:
Links:
Sources:

  
  • flag of United States
  • flag of Michigan
  

Sectional Chart

Flight Planning
at skyvector.com

Satellite Image

Google Maps Satellite view

 

Copyright © 2004-2019 Karl L. Swartz. All rights reserved.
The Great Circle Mapper name and logo are trademarks of the Great Circle Mapper.
All other trademarks mentioned herein belong to their respective owners.
Please see credits for attibutions and further copyright information.

  Follow gcmap on Facebook Follow gcmap on Twitter GCmap on LinkedIn

hCard Microformat

Geo Microformat